createdAt,value
2018-11-06T00:00:28.053Z,56.00
2018-11-06T00:03:02.374Z,48.50
2018-11-06T00:05:31.452Z,47.50
2018-11-06T00:08:01.539Z,43.25
2018-11-06T00:10:30.590Z,50.50
2018-11-06T00:12:59.666Z,54.25
2018-11-06T00:15:28.736Z,47.75
2018-11-06T00:17:57.797Z,51.00
2018-11-06T00:20:26.846Z,48.50
2018-11-06T00:22:55.902Z,43.00
2018-11-06T00:25:24.961Z,50.00
2018-11-06T00:27:54.015Z,46.25
2018-11-06T00:30:23.048Z,51.25
2018-11-06T00:32:52.098Z,49.25
2018-11-06T00:35:21.140Z,40.00
2018-11-06T00:37:50.201Z,45.50
2018-11-06T00:40:19.801Z,45.25
2018-11-06T00:42:48.868Z,45.00
2018-11-06T00:45:17.943Z,51.50
2018-11-06T00:47:47.017Z,45.00
2018-11-06T00:50:16.080Z,45.50
2018-11-06T00:52:45.315Z,47.25
2018-11-06T00:55:14.681Z,45.50
2018-11-06T00:57:44.527Z,45.50
2018-11-06T01:00:16.397Z,39.75
2018-11-06T01:02:45.630Z,42.50
2018-11-06T01:05:15.500Z,46.50
2018-11-06T01:07:47.570Z,47.25
2018-11-06T01:10:16.719Z,39.25
2018-11-06T01:12:45.765Z,48.00
2018-11-06T01:15:16.284Z,43.25
2018-11-06T01:17:46.595Z,47.25
2018-11-06T01:20:17.997Z,45.00
2018-11-06T01:22:47.314Z,48.50
2018-11-06T01:25:16.812Z,47.00
2018-11-06T01:27:46.745Z,48.75
2018-11-06T01:30:18.810Z,50.75
2018-11-06T01:32:48.174Z,51.75
2018-11-06T01:35:17.706Z,47.25
2018-11-06T01:37:49.649Z,37.25
2018-11-06T01:40:19.273Z,45.00
2018-11-06T01:42:48.675Z,46.75
2018-11-06T01:45:18.166Z,47.00
2018-11-06T01:47:47.507Z,48.50
2018-11-06T01:50:17.697Z,48.25
2018-11-06T01:52:47.586Z,37.50
2018-11-06T01:55:16.637Z,47.75
2018-11-06T01:57:45.662Z,44.25
2018-11-06T02:00:16.662Z,42.75
2018-11-06T02:02:45.753Z,43.50
2018-11-06T02:05:15.976Z,43.75
2018-11-06T02:07:46.182Z,43.50
2018-11-06T02:10:16.011Z,42.25
2018-11-06T02:12:47.791Z,45.00
2018-11-06T02:15:16.888Z,45.75
2018-11-06T02:17:46.981Z,47.75
2018-11-06T02:20:16.934Z,42.00
2018-11-06T02:22:46.502Z,47.75
2018-11-06T02:25:15.718Z,43.75
2018-11-06T02:27:44.742Z,43.25
2018-11-06T02:30:15.403Z,43.50
2018-11-06T02:32:45.031Z,50.50
2018-11-06T02:35:14.042Z,50.50
2018-11-06T02:37:43.145Z,52.50
2018-11-06T02:40:14.411Z,54.50
2018-11-06T02:42:43.571Z,49.00
2018-11-06T02:45:13.349Z,41.75
2018-11-06T02:47:42.886Z,44.25
2018-11-06T02:50:11.964Z,45.25
2018-11-06T02:52:41.199Z,53.00
2018-11-06T02:55:10.925Z,44.25
2018-11-06T02:57:40.942Z,49.50
2018-11-06T03:00:12.547Z,43.25
2018-11-06T03:02:41.597Z,45.25
2018-11-06T03:05:10.981Z,40.00
2018-11-06T03:07:40.402Z,44.75
2018-11-06T03:10:10.472Z,40.25
2018-11-06T03:12:40.404Z,48.00
2018-11-06T03:15:10.357Z,41.50
2018-11-06T03:17:39.422Z,44.75
2018-11-06T03:20:09.330Z,49.50
2018-11-06T03:22:38.361Z,46.25
2018-11-06T03:25:07.675Z,45.50
2018-11-06T03:27:36.782Z,45.50
2018-11-06T03:30:08.239Z,54.50
2018-11-06T03:32:37.516Z,46.50
2018-11-06T03:35:07.533Z,47.25
2018-11-06T03:37:37.614Z,45.00
2018-11-06T03:40:07.110Z,46.00
2018-11-06T03:42:36.313Z,43.00
2018-11-06T03:45:05.865Z,51.50
2018-11-06T03:47:34.948Z,45.75
2018-11-06T03:50:04.029Z,42.25
2018-11-06T03:52:33.089Z,44.75
2018-11-06T03:55:03.026Z,44.50
2018-11-06T03:57:32.101Z,42.75
2018-11-06T04:00:01.815Z,43.50
2018-11-06T04:02:30.842Z,43.75
2018-11-06T04:04:59.907Z,40.25
2018-11-06T04:07:28.932Z,42.00
2018-11-06T04:09:57.975Z,39.25
2018-11-06T04:12:27.030Z,39.75
2018-11-06T04:14:56.083Z,40.00
2018-11-06T04:17:25.709Z,42.00
2018-11-06T04:19:54.779Z,42.00
2018-11-06T04:22:23.830Z,43.00
2018-11-06T04:24:52.882Z,43.50
2018-11-06T04:27:21.960Z,41.75
2018-11-06T04:29:51.003Z,35.75
2018-11-06T04:32:20.093Z,44.75
2018-11-06T04:34:49.170Z,37.75
2018-11-06T04:37:18.226Z,45.25
2018-11-06T04:39:47.275Z,38.25
2018-11-06T04:42:16.340Z,47.75
2018-11-06T04:44:45.383Z,43.50
2018-11-06T04:47:14.445Z,46.50
2018-11-06T04:49:43.496Z,40.50
2018-11-06T04:52:12.746Z,39.75
2018-11-06T04:54:41.797Z,50.50
2018-11-06T04:57:10.833Z,47.00
2018-11-06T04:59:39.901Z,44.50
2018-11-06T05:02:08.998Z,44.50
2018-11-06T05:04:38.010Z,40.75
2018-11-06T05:07:07.050Z,44.00
2018-11-06T05:09:36.067Z,38.00
2018-11-06T05:12:05.321Z,39.50
2018-11-06T05:14:34.342Z,42.00
2018-11-06T05:17:03.443Z,43.25
2018-11-06T05:19:32.492Z,38.25
2018-11-06T05:22:01.572Z,39.00
2018-11-06T05:24:30.609Z,37.75
2018-11-06T05:26:59.674Z,44.50
2018-11-06T05:29:28.695Z,42.50
2018-11-06T05:31:57.778Z,39.50
2018-11-06T05:34:26.867Z,36.50
2018-11-06T05:36:55.988Z,45.75
2018-11-06T05:39:25.093Z,40.50
2018-11-06T05:41:54.136Z,45.25
2018-11-06T05:44:23.170Z,38.50
2018-11-06T05:46:53.090Z,43.50
2018-11-06T05:49:22.141Z,41.25
2018-11-06T05:51:51.182Z,36.25
2018-11-06T05:54:20.202Z,40.75
2018-11-06T05:56:49.273Z,40.25
2018-11-06T05:59:18.345Z,43.25
2018-11-06T06:01:48.021Z,37.00
2018-11-06T06:04:17.401Z,34.25
2018-11-06T06:06:46.474Z,41.25
2018-11-06T06:09:16.380Z,42.75
2018-11-06T06:11:45.469Z,42.75
2018-11-06T06:14:15.004Z,45.00
2018-11-06T06:16:44.065Z,41.75
2018-11-06T06:19:13.152Z,43.25
2018-11-06T06:21:42.233Z,44.75
2018-11-06T06:24:11.384Z,37.00
2018-11-06T06:26:40.414Z,41.75
2018-11-06T06:29:09.478Z,38.00
2018-11-06T06:31:39.507Z,44.75
2018-11-06T06:34:08.659Z,42.25
2018-11-06T06:36:37.756Z,44.25
2018-11-06T06:39:08.381Z,51.50
2018-11-06T06:41:37.544Z,46.00
2018-11-06T06:44:06.845Z,37.50
2018-11-06T06:46:36.095Z,45.50
2018-11-06T06:49:05.204Z,41.50
2018-11-06T06:51:34.264Z,42.50
2018-11-06T06:54:03.438Z,49.50
2018-11-06T06:56:32.467Z,43.00
2018-11-06T06:59:01.492Z,42.75
2018-11-06T07:01:30.559Z,43.50
2018-11-06T07:04:00.621Z,36.00
2018-11-06T07:06:30.034Z,43.75
2018-11-06T07:08:59.070Z,43.75
2018-11-06T07:11:28.462Z,39.00
2018-11-06T07:13:57.534Z,39.00
2018-11-06T07:16:26.640Z,44.00
2018-11-06T07:18:55.748Z,46.50
2018-11-06T07:21:25.102Z,46.00
2018-11-06T07:26:52.536Z,45.25
2018-11-06T07:29:21.713Z,44.75
2018-11-06T07:31:53.732Z,43.00
2018-11-06T07:34:22.860Z,47.50
2018-11-06T07:36:51.977Z,48.50
2018-11-06T07:39:21.089Z,48.25
2018-11-06T07:41:50.125Z,49.00
2018-11-06T07:44:19.267Z,44.50
2018-11-06T07:46:48.405Z,49.00
2018-11-06T07:49:17.544Z,45.00
2018-11-06T07:51:46.597Z,51.50
2018-11-06T07:54:15.750Z,47.50
2018-11-06T07:56:44.818Z,49.75
2018-11-06T07:59:13.879Z,54.25
2018-11-06T08:01:43.218Z,45.50
2018-11-06T08:04:12.313Z,48.00
2018-11-06T08:06:41.357Z,51.00
2018-11-06T08:09:11.040Z,51.75
2018-11-06T08:11:40.750Z,48.25
2018-11-06T08:14:09.842Z,49.75
2018-11-06T08:16:39.055Z,45.25
2018-11-06T08:19:08.080Z,53.75
2018-11-06T08:21:38.920Z,48.75
2018-11-06T08:24:08.461Z,47.75
2018-11-06T08:26:37.547Z,53.00
2018-11-06T08:29:07.515Z,51.00
2018-11-06T08:31:36.847Z,43.50
2018-11-06T08:34:07.164Z,53.25
2018-11-06T08:36:36.338Z,55.00
2018-11-06T08:39:07.934Z,57.75
2018-11-06T08:41:37.857Z,54.00
2018-11-06T08:44:06.990Z,55.75
2018-11-06T08:46:36.092Z,51.25
2018-11-06T08:49:05.219Z,50.50
2018-11-06T08:51:35.832Z,49.50
2018-11-06T08:54:05.294Z,54.00
2018-11-06T08:56:35.350Z,52.00
2018-11-06T08:59:04.469Z,54.75
2018-11-06T09:01:33.556Z,48.00
2018-11-06T09:04:02.665Z,52.50
2018-11-06T09:06:31.711Z,47.50
2018-11-06T09:09:00.816Z,47.25
2018-11-06T09:11:29.840Z,47.75
2018-11-06T09:13:58.910Z,45.50
2018-11-06T09:16:27.953Z,47.75
2018-11-06T09:18:56.987Z,46.00
2018-11-06T09:21:26.038Z,49.50
2018-11-06T09:23:55.112Z,47.25
2018-11-06T09:26:24.189Z,43.50
2018-11-06T09:28:53.393Z,49.25
2018-11-06T09:31:22.445Z,48.00
2018-11-06T09:33:52.438Z,47.75
2018-11-06T09:36:21.478Z,46.25
2018-11-06T09:38:50.521Z,44.75
2018-11-06T09:41:19.622Z,47.75
2018-11-06T09:43:50.233Z,46.00
2018-11-06T09:46:19.246Z,49.25
2018-11-06T09:48:48.390Z,44.50
2018-11-06T09:51:17.408Z,41.50
2018-11-06T09:53:46.466Z,42.50
2018-11-06T09:56:16.359Z,40.75
2018-11-06T09:58:45.444Z,40.50
2018-11-06T10:01:14.534Z,41.25
2018-11-06T10:03:43.614Z,36.00
2018-11-06T10:06:12.753Z,44.75
2018-11-06T10:08:41.864Z,41.50
2018-11-06T10:11:10.893Z,39.75
2018-11-06T10:13:39.966Z,35.00
2018-11-06T10:16:09.021Z,38.75
2018-11-06T10:18:38.083Z,37.75
2018-11-06T10:21:07.265Z,44.50
2018-11-06T10:23:36.302Z,34.75
2018-11-06T10:26:05.636Z,40.00
2018-11-06T10:28:35.058Z,45.25
2018-11-06T10:31:04.155Z,39.50
2018-11-06T10:33:33.215Z,39.00
2018-11-06T10:36:02.344Z,36.00
2018-11-06T10:38:37.086Z,41.25
2018-11-06T10:41:06.162Z,38.75
2018-11-06T10:43:35.222Z,37.50
2018-11-06T10:46:04.331Z,34.50
2018-11-06T10:48:33.406Z,34.00
2018-11-06T10:51:04.423Z,33.50
2018-11-06T10:53:33.443Z,37.25
2018-11-06T10:56:02.562Z,34.50
2018-11-06T10:58:31.633Z,36.75
2018-11-06T11:01:05.895Z,38.50
2018-11-06T11:03:41.006Z,35.00
2018-11-06T11:06:10.085Z,34.00
2018-11-06T11:08:39.121Z,35.75
2018-11-06T11:11:09.722Z,32.00
2018-11-06T11:13:38.817Z,36.25
2018-11-06T11:16:08.016Z,30.75
2018-11-06T11:18:37.110Z,36.75
2018-11-06T11:21:06.682Z,36.75
2018-11-06T11:23:35.756Z,35.75
2018-11-06T11:26:04.834Z,36.75
2018-11-06T11:28:33.944Z,34.00
2018-11-06T11:31:02.995Z,33.50
2018-11-06T11:33:32.305Z,34.50
2018-11-06T11:36:01.409Z,28.00
2018-11-06T11:38:30.378Z,31.75
2018-11-06T11:40:59.482Z,34.00
2018-11-06T11:43:28.583Z,29.00
2018-11-06T11:45:57.715Z,29.25
2018-11-06T11:48:26.678Z,28.75
2018-11-06T11:50:55.803Z,31.50
2018-11-06T11:53:24.845Z,27.00
2018-11-06T11:55:53.866Z,26.50
2018-11-06T11:58:23.027Z,28.50
2018-11-06T12:00:52.093Z,24.50
2018-11-06T12:03:21.131Z,26.75
2018-11-06T12:05:50.158Z,28.75
2018-11-06T12:08:19.246Z,25.25
2018-11-06T12:10:48.309Z,24.25
2018-11-06T12:13:17.445Z,25.25
2018-11-06T12:15:46.490Z,24.25
2018-11-06T12:18:15.606Z,25.00
2018-11-06T12:20:44.711Z,28.00
2018-11-06T12:23:13.781Z,28.50
2018-11-06T12:25:43.015Z,25.00
2018-11-06T12:28:11.886Z,27.00
2018-11-06T12:30:41.005Z,26.25
2018-11-06T12:33:10.060Z,25.25
2018-11-06T12:35:39.164Z,29.50
2018-11-06T12:38:08.276Z,28.50
2018-11-06T12:40:37.337Z,27.00
2018-11-06T12:43:07.394Z,27.75
2018-11-06T12:45:36.466Z,28.50
2018-11-06T12:48:05.706Z,31.75
2018-11-06T12:50:34.901Z,29.75
2018-11-06T12:53:04.058Z,26.25
2018-11-06T12:55:33.150Z,24.75
2018-11-06T12:58:02.224Z,24.00
2018-11-06T13:00:32.128Z,26.50
2018-11-06T13:03:01.209Z,20.50
2018-11-06T13:05:30.279Z,23.00
2018-11-06T13:07:59.337Z,23.25
2018-11-06T13:10:28.412Z,20.50
2018-11-06T13:12:57.463Z,21.50
2018-11-06T13:15:26.616Z,20.25
2018-11-06T13:17:55.873Z,19.50
2018-11-06T13:20:24.994Z,19.25
2018-11-06T13:22:56.394Z,22.75
2018-11-06T13:25:26.510Z,19.75
2018-11-06T13:27:55.566Z,22.00
2018-11-06T13:30:24.677Z,19.00
2018-11-06T13:32:53.738Z,21.25
2018-11-06T13:35:23.813Z,19.75
2018-11-06T13:37:52.885Z,19.00
2018-11-06T13:40:22.014Z,21.25
2018-11-06T13:42:51.228Z,19.00
2018-11-06T13:45:23.139Z,19.25
2018-11-06T13:47:52.047Z,17.00
2018-11-06T13:50:21.830Z,19.25
2018-11-06T13:52:50.866Z,19.75
2018-11-06T13:55:19.902Z,20.50
2018-11-06T13:57:48.954Z,18.25
2018-11-06T14:00:19.349Z,14.25
2018-11-06T14:02:48.404Z,16.25
2018-11-06T14:05:17.692Z,16.00
2018-11-06T14:07:47.034Z,16.00
2018-11-06T14:10:16.403Z,20.25
2018-11-06T14:12:45.843Z,19.00
2018-11-06T14:15:14.993Z,14.00
2018-11-06T14:17:44.027Z,15.75
2018-11-06T14:20:14.375Z,16.00
2018-11-06T14:22:43.573Z,17.75
2018-11-06T14:25:12.689Z,21.25
2018-11-06T14:27:43.749Z,18.50
2018-11-06T14:30:15.693Z,15.75
2018-11-06T14:32:45.014Z,15.25
2018-11-06T14:35:15.227Z,16.25
2018-11-06T14:37:47.071Z,18.00
2018-11-06T14:40:16.685Z,13.75
2018-11-06T14:42:46.236Z,16.00
2018-11-06T14:45:16.723Z,15.50
2018-11-06T14:47:46.047Z,16.00
2018-11-06T14:50:15.258Z,16.75
2018-11-06T14:52:44.279Z,15.00
2018-11-06T14:55:14.662Z,15.25
2018-11-06T14:57:44.405Z,14.75
2018-11-06T15:00:19.103Z,16.75
2018-11-06T15:02:49.444Z,15.75
2018-11-06T15:05:19.266Z,17.50
2018-11-06T15:07:51.130Z,18.00
2018-11-06T15:10:20.223Z,14.75
2018-11-06T15:12:49.710Z,18.75
2018-11-06T15:15:18.742Z,18.00
2018-11-06T15:17:48.381Z,20.50
2018-11-06T15:20:19.008Z,18.00
2018-11-06T15:22:48.116Z,14.25
2018-11-06T15:25:17.934Z,19.75
2018-11-06T15:27:48.986Z,17.75
2018-11-06T15:30:19.103Z,19.00
2018-11-06T15:32:50.974Z,16.25
2018-11-06T15:35:21.339Z,18.75
2018-11-06T15:37:51.601Z,17.00
2018-11-06T15:40:21.854Z,18.50
2018-11-06T15:42:50.925Z,21.25
2018-11-06T15:45:20.498Z,18.75
2018-11-06T15:47:50.222Z,19.50
2018-11-06T15:50:20.331Z,17.75
2018-11-06T15:52:50.465Z,16.75
2018-11-06T15:55:19.868Z,15.00
2018-11-06T15:57:49.527Z,14.75
2018-11-06T16:00:22.869Z,17.25
2018-11-06T16:02:52.110Z,20.00
2018-11-06T16:05:21.503Z,26.25
2018-11-06T16:07:50.994Z,37.25
2018-11-06T16:10:21.354Z,28.50
2018-11-06T16:12:50.526Z,23.50
2018-11-06T16:15:40.875Z,20.50
2018-11-06T16:18:11.009Z,27.00
2018-11-06T16:20:50.416Z,24.25
2018-11-06T16:23:41.866Z,39.50
2018-11-06T16:26:14.954Z,49.50
2018-11-06T16:28:51.391Z,29.25
2018-11-06T16:31:40.821Z,27.25
2018-11-06T16:34:24.067Z,19.00
2018-11-06T16:36:55.816Z,21.00
2018-11-06T16:39:29.186Z,27.75
2018-11-06T16:42:10.895Z,25.25
2018-11-06T16:44:57.287Z,41.50
2018-11-06T16:47:36.457Z,35.50
2018-11-06T16:50:16.590Z,28.00
2018-11-06T16:52:51.443Z,24.50
2018-11-06T16:58:23.979Z,29.75
2018-11-06T17:01:05.073Z,29.00
2018-11-06T17:03:49.508Z,27.25
2018-11-06T17:09:07.454Z,32.00
2018-11-06T17:11:46.523Z,36.00
2018-11-06T17:14:18.180Z,47.00
2018-11-06T17:16:55.372Z,41.00
2018-11-06T17:22:14.069Z,29.25
2018-11-06T17:24:44.536Z,32.25
2018-11-06T17:27:13.955Z,25.00
2018-11-06T17:29:43.381Z,31.25
2018-11-06T17:32:14.531Z,33.50
2018-11-06T17:35:08.857Z,30.50
2018-11-06T17:51:43.038Z,29.25
2018-11-06T17:54:13.033Z,33.50
2018-11-06T17:56:42.463Z,32.00
2018-11-06T17:59:30.526Z,38.50
2018-11-06T18:02:07.664Z,44.75
2018-11-06T18:04:37.146Z,40.75
2018-11-06T18:07:07.146Z,37.50
2018-11-06T18:09:38.275Z,34.75
2018-11-06T18:12:09.458Z,42.00
2018-11-06T18:14:47.274Z,42.50
2018-11-06T18:17:20.006Z,36.00
2018-11-06T18:19:50.140Z,38.25
2018-11-06T18:22:20.375Z,35.00
2018-11-06T18:24:50.238Z,31.00
2018-11-06T18:27:19.442Z,35.00
2018-11-06T18:29:49.139Z,30.00
2018-11-06T18:32:18.404Z,30.50
2018-11-06T18:34:47.405Z,29.00
2018-11-06T18:37:16.625Z,29.25
2018-11-06T18:39:45.647Z,32.75
2018-11-06T18:42:15.857Z,34.00
2018-11-06T18:44:45.455Z,41.00
2018-11-06T18:47:14.568Z,30.50
2018-11-06T18:49:43.640Z,34.00
2018-11-06T18:52:12.724Z,30.00
2018-11-06T18:54:41.844Z,36.25
2018-11-06T18:57:11.530Z,34.75
2018-11-06T18:59:40.684Z,37.50
2018-11-06T19:02:13.899Z,43.00
2018-11-06T19:04:43.346Z,36.75
2018-11-06T19:07:12.486Z,36.25
2018-11-06T19:09:41.519Z,35.25
2018-11-06T19:12:10.862Z,36.25
2018-11-06T19:14:39.941Z,47.25
2018-11-06T19:17:09.259Z,49.00
2018-11-06T19:19:38.666Z,48.25
2018-11-06T19:22:08.235Z,40.00
2018-11-06T19:24:37.307Z,40.00
2018-11-06T19:27:08.693Z,45.75
2018-11-06T19:29:38.533Z,42.00
2018-11-06T19:32:08.071Z,47.25
2018-11-06T19:34:37.157Z,41.00
2018-11-06T19:37:06.721Z,35.75
2018-11-06T19:39:36.459Z,34.25
2018-11-06T19:42:05.929Z,33.00
2018-11-06T19:44:35.053Z,37.50
2018-11-06T19:47:04.164Z,37.75
2018-11-06T19:49:33.237Z,36.00
2018-11-06T19:52:02.341Z,40.00
2018-11-06T19:54:32.377Z,35.75
2018-11-06T19:57:01.365Z,37.25
2018-11-06T19:59:30.488Z,36.75
2018-11-06T20:01:59.756Z,39.75
2018-11-06T20:04:28.912Z,34.50
2018-11-06T20:06:57.975Z,39.00
2018-11-06T20:09:27.120Z,37.50
2018-11-06T20:11:56.270Z,52.75
2018-11-06T20:14:25.293Z,38.00
2018-11-06T20:16:54.357Z,38.75
2018-11-06T20:19:23.457Z,44.25
2018-11-06T20:21:53.245Z,47.00
2018-11-06T20:24:22.389Z,47.75
2018-11-06T20:26:51.465Z,36.75
2018-11-06T20:29:20.572Z,37.00
2018-11-06T20:31:49.688Z,41.75
2018-11-06T20:34:19.933Z,42.50
2018-11-06T20:36:49.032Z,37.25
2018-11-06T20:39:18.337Z,36.50
2018-11-06T20:41:47.503Z,44.00
2018-11-06T20:44:16.633Z,40.50
2018-11-06T20:46:46.417Z,39.50
2018-11-06T20:49:15.548Z,38.50
2018-11-06T20:51:44.608Z,36.25
2018-11-06T20:54:13.731Z,39.75
2018-11-06T20:56:42.823Z,38.00
2018-11-06T20:59:11.914Z,40.00
2018-11-06T21:01:41.037Z,40.75
2018-11-06T21:04:10.129Z,50.50
2018-11-06T21:06:39.260Z,48.50
2018-11-06T21:09:09.610Z,42.25
2018-11-06T21:11:39.667Z,42.25
2018-11-06T21:14:08.979Z,38.25
2018-11-06T21:19:30.552Z,39.25
2018-11-06T21:22:02.678Z,39.50
2018-11-06T21:24:31.823Z,33.25
2018-11-06T21:27:00.949Z,38.50
2018-11-06T21:29:29.895Z,43.00
2018-11-06T21:31:58.987Z,40.00
2018-11-06T21:34:28.034Z,45.50
2018-11-06T21:36:57.187Z,43.50
2018-11-06T21:39:26.377Z,45.75
2018-11-06T21:41:56.358Z,42.50
2018-11-06T21:44:25.426Z,43.00
2018-11-06T21:46:54.508Z,48.50
2018-11-06T21:49:23.639Z,43.50
2018-11-06T21:51:52.718Z,37.75
2018-11-06T21:54:21.770Z,37.25
2018-11-06T21:56:50.862Z,47.25
2018-11-06T21:59:19.921Z,38.25
2018-11-06T22:01:49.794Z,35.50
2018-11-06T22:04:18.862Z,44.50
2018-11-06T22:06:47.965Z,36.25
2018-11-06T22:09:17.014Z,39.75
2018-11-06T22:11:46.115Z,38.25
2018-11-06T22:14:15.681Z,33.75
2018-11-06T22:16:44.736Z,33.25
2018-11-06T22:19:13.774Z,37.75
2018-11-06T22:21:43.590Z,35.25
2018-11-06T22:24:12.586Z,40.25
2018-11-06T22:26:41.668Z,33.25
2018-11-06T22:29:11.381Z,31.50
2018-11-06T22:31:40.550Z,29.75
2018-11-06T22:34:09.562Z,40.00
2018-11-06T22:36:38.638Z,35.00
2018-11-06T22:39:09.237Z,34.75
2018-11-06T22:41:38.748Z,32.50
2018-11-06T22:44:08.109Z,37.75
2018-11-06T22:46:37.450Z,37.00
2018-11-06T22:49:06.976Z,35.75
2018-11-06T22:51:36.016Z,33.75
2018-11-06T22:54:06.263Z,41.00
2018-11-06T22:56:35.401Z,36.25
2018-11-06T22:59:04.513Z,38.50
2018-11-06T23:01:33.613Z,42.25
2018-11-06T23:04:02.655Z,33.25
2018-11-06T23:06:31.794Z,34.00
2018-11-06T23:09:00.786Z,35.00
2018-11-06T23:11:29.870Z,33.00
2018-11-06T23:13:58.939Z,35.75
2018-11-06T23:16:28.028Z,32.75
2018-11-06T23:18:58.136Z,33.25
2018-11-06T23:21:27.258Z,35.00
2018-11-06T23:23:56.352Z,31.00
2018-11-06T23:26:25.424Z,31.75
2018-11-06T23:28:54.468Z,32.50
2018-11-06T23:31:23.592Z,39.00
2018-11-06T23:33:57.568Z,34.75
2018-11-06T23:36:26.641Z,36.00
2018-11-06T23:38:55.717Z,39.00
2018-11-06T23:41:24.825Z,35.00
2018-11-06T23:43:53.904Z,30.50
2018-11-06T23:46:23.927Z,34.00
2018-11-06T23:48:53.020Z,31.50
2018-11-06T23:51:22.057Z,30.50
2018-11-06T23:53:51.153Z,35.50
2018-11-06T23:56:20.273Z,33.00
2018-11-06T23:58:49.321Z,36.50
